sensor_id;sensor_type;location;lat;lon;timestamp;pressure;altitude;pressure_sealevel;temperature;humidity
53715;BME280;39608;55.630;37.864;2023-09-30T00:02:32;99894.00;;;14.61;65.51
53715;BME280;39608;55.630;37.864;2023-09-30T00:07:34;99897.53;;;14.62;65.84
53715;BME280;39608;55.630;37.864;2023-09-30T00:12:40;99900.88;;;14.59;66.25
53715;BME280;39608;55.630;37.864;2023-09-30T00:17:42;99902.78;;;14.49;66.34
53715;BME280;39608;55.630;37.864;2023-09-30T00:22:44;99895.16;;;14.37;66.49
53715;BME280;39608;55.630;37.864;2023-09-30T00:27:48;99911.72;;;14.41;67.38
53715;BME280;39608;55.630;37.864;2023-09-30T00:32:51;99895.78;;;14.34;66.91
53715;BME280;39608;55.630;37.864;2023-09-30T00:37:53;99896.09;;;14.33;66.98
53715;BME280;39608;55.630;37.864;2023-09-30T00:42:58;99878.66;;;14.20;67.44
53715;BME280;39608;55.630;37.864;2023-09-30T00:48:00;99886.03;;;14.19;67.17
53715;BME280;39608;55.630;37.864;2023-09-30T00:53:06;99891.59;;;14.14;67.56
53715;BME280;39608;55.630;37.864;2023-09-30T00:58:10;99884.97;;;14.07;67.95
53715;BME280;39608;55.630;37.864;2023-09-30T01:03:12;99887.63;;;13.98;67.99
53715;BME280;39608;55.630;37.864;2023-09-30T01:08:15;99883.72;;;13.90;68.39
53715;BME280;39608;55.630;37.864;2023-09-30T01:13:19;99884.03;;;13.89;68.75
53715;BME280;39608;55.630;37.864;2023-09-30T01:18:21;99877.69;;;13.79;68.88
53715;BME280;39608;55.630;37.864;2023-09-30T01:23:24;99877.28;;;13.72;69.25
53715;BME280;39608;55.630;37.864;2023-09-30T01:28:26;99881.25;;;13.66;69.03
53715;BME280;39608;55.630;37.864;2023-09-30T01:33:28;99883.47;;;13.64;69.27
53715;BME280;39608;55.630;37.864;2023-09-30T01:38:35;99870.59;;;13.56;69.73
53715;BME280;39608;55.630;37.864;2023-09-30T01:43:37;99871.00;;;13.49;69.41
53715;BME280;39608;55.630;37.864;2023-09-30T01:48:39;99878.25;;;13.54;69.55
53715;BME280;39608;55.630;37.864;2023-09-30T01:53:43;99872.00;;;13.53;69.54
53715;BME280;39608;55.630;37.864;2023-09-30T01:58:46;99879.47;;;13.47;69.76
53715;BME280;39608;55.630;37.864;2023-09-30T02:03:48;99867.59;;;13.43;69.31
53715;BME280;39608;55.630;37.864;2023-09-30T02:08:51;99867.88;;;13.42;69.92
53715;BME280;39608;55.630;37.864;2023-09-30T02:13:53;99866.56;;;13.39;69.68
53715;BME280;39608;55.630;37.864;2023-09-30T02:18:55;99868.78;;;13.37;69.94
53715;BME280;39608;55.630;37.864;2023-09-30T02:23:59;99864.72;;;13.34;69.89
53715;BME280;39608;55.630;37.864;2023-09-30T02:29:01;99866.16;;;13.32;69.92
53715;BME280;39608;55.630;37.864;2023-09-30T02:34:06;99858.38;;;13.25;70.11
53715;BME280;39608;55.630;37.864;2023-09-30T02:39:10;99854.25;;;13.14;70.38
53715;BME280;39608;55.630;37.864;2023-09-30T02:44:12;99855.66;;;13.25;69.86
53715;BME280;39608;55.630;37.864;2023-09-30T02:49:14;99855.25;;;13.32;69.60
53715;BME280;39608;55.630;37.864;2023-09-30T02:54:22;99847.50;;;13.39;69.94
53715;BME280;39608;55.630;37.864;2023-09-30T02:59:24;99847.56;;;13.34;69.37
53715;BME280;39608;55.630;37.864;2023-09-30T03:04:27;99843.53;;;13.31;69.52
53715;BME280;39608;55.630;37.864;2023-09-30T03:09:32;99844.84;;;13.34;69.61
53715;BME280;39608;55.630;37.864;2023-09-30T03:14:34;99838.91;;;13.32;69.56
53715;BME280;39608;55.630;37.864;2023-09-30T03:19:37;99838.22;;;13.26;69.77
53715;BME280;39608;55.630;37.864;2023-09-30T03:24:40;99833.88;;;13.25;69.60
53715;BME280;39608;55.630;37.864;2023-09-30T03:29:43;99840.13;;;13.26;69.84
53715;BME280;39608;55.630;37.864;2023-09-30T03:34:45;99833.66;;;13.22;69.79
53715;BME280;39608;55.630;37.864;2023-09-30T03:39:50;99833.66;;;13.22;69.84
53715;BME280;39608;55.630;37.864;2023-09-30T03:44:54;99838.94;;;13.18;69.59
53715;BME280;39608;55.630;37.864;2023-09-30T03:49:56;99824.09;;;13.10;69.81
53715;BME280;39608;55.630;37.864;2023-09-30T03:55:01;99833.97;;;13.20;69.65
53715;BME280;39608;55.630;37.864;2023-09-30T04:00:07;99839.13;;;13.22;69.68
53715;BME280;39608;55.630;37.864;2023-09-30T04:05:12;99837.00;;;13.18;69.65
53715;BME280;39608;55.630;37.864;2023-09-30T04:10:18;99838.31;;;13.21;69.86
53715;BME280;39608;55.630;37.864;2023-09-30T04:15:20;99841.34;;;13.20;69.96
53715;BME280;39608;55.630;37.864;2023-09-30T04:20:22;99831.56;;;13.18;70.04
53715;BME280;39608;55.630;37.864;2023-09-30T04:25:29;99828.44;;;13.25;70.24
53715;BME280;39608;55.630;37.864;2023-09-30T04:30:31;99831.03;;;13.30;69.83
53715;BME280;39608;55.630;37.864;2023-09-30T04:35:35;99840.13;;;13.40;69.35
53715;BME280;39608;55.630;37.864;2023-09-30T04:40:39;99844.38;;;13.46;69.44
53715;BME280;39608;55.630;37.864;2023-09-30T04:45:41;99840.19;;;13.48;69.37
53715;BME280;39608;55.630;37.864;2023-09-30T04:50:44;99841.72;;;13.55;69.04
53715;BME280;39608;55.630;37.864;2023-09-30T04:55:57;99843.09;;;13.66;69.12
53715;BME280;39608;55.630;37.864;2023-09-30T05:00:59;99845.72;;;13.71;68.94
53715;BME280;39608;55.630;37.864;2023-09-30T05:06:01;99837.41;;;13.76;68.73
53715;BME280;39608;55.630;37.864;2023-09-30T05:11:05;99830.59;;;13.88;68.65
53715;BME280;39608;55.630;37.864;2023-09-30T05:16:07;99839.66;;;13.97;68.40
53715;BME280;39608;55.630;37.864;2023-09-30T05:21:09;99836.09;;;14.10;68.49
53715;BME280;39608;55.630;37.864;2023-09-30T05:26:13;99820.88;;;14.18;68.14
53715;BME280;39608;55.630;37.864;2023-09-30T05:31:15;99834.63;;;14.35;68.00
53715;BME280;39608;55.630;37.864;2023-09-30T05:36:17;99824.75;;;14.48;67.49
53715;BME280;39608;55.630;37.864;2023-09-30T05:41:22;99826.81;;;14.74;67.33
53715;BME280;39608;55.630;37.864;2023-09-30T05:46:25;99824.78;;;14.88;66.85
53715;BME280;39608;55.630;37.864;2023-09-30T05:51:27;99813.72;;;15.02;66.45
53715;BME280;39608;55.630;37.864;2023-09-30T05:56:31;99822.97;;;15.24;66.26
53715;BME280;39608;55.630;37.864;2023-09-30T06:01:33;99810.13;;;15.33;65.88
53715;BME280;39608;55.630;37.864;2023-09-30T06:06:36;99801.28;;;15.45;65.62
53715;BME280;39608;55.630;37.864;2023-09-30T06:11:40;99819.00;;;15.83;65.01
53715;BME280;39608;55.630;37.864;2023-09-30T06:16:42;99812.56;;;15.96;64.96
53715;BME280;39608;55.630;37.864;2023-09-30T06:21:45;99800.78;;;16.04;64.77
53715;BME280;39608;55.630;37.864;2023-09-30T06:26:49;99808.50;;;16.29;64.34
53715;BME280;39608;55.630;37.864;2023-09-30T06:31:52;99800.88;;;16.43;64.00
53715;BME280;39608;55.630;37.864;2023-09-30T06:36:54;99786.97;;;16.57;63.57
53715;BME280;39608;55.630;37.864;2023-09-30T06:41:57;99803.13;;;16.88;62.86
53715;BME280;39608;55.630;37.864;2023-09-30T06:46:59;99793.97;;;17.14;62.25
53715;BME280;39608;55.630;37.864;2023-09-30T06:52:01;99788.16;;;17.37;61.30
53715;BME280;39608;55.630;37.864;2023-09-30T06:57:05;99790.38;;;17.65;60.75
53715;BME280;39608;55.630;37.864;2023-09-30T07:02:08;99792.06;;;17.90;60.15
53715;BME280;39608;55.630;37.864;2023-09-30T07:07:11;99791.81;;;18.04;59.41
53715;BME280;39608;55.630;37.864;2023-09-30T07:12:14;99783.06;;;18.23;59.13
53715;BME280;39608;55.630;37.864;2023-09-30T07:17:16;99787.22;;;18.42;58.65
53715;BME280;39608;55.630;37.864;2023-09-30T07:22:18;99777.75;;;18.64;58.21
53715;BME280;39608;55.630;37.864;2023-09-30T07:27:23;99776.50;;;18.74;57.77
53715;BME280;39608;55.630;37.864;2023-09-30T07:32:26;99784.06;;;18.89;57.24
53715;BME280;39608;55.630;37.864;2023-09-30T07:37:29;99775.34;;;19.00;56.72
53715;BME280;39608;55.630;37.864;2023-09-30T07:42:32;99774.19;;;19.13;56.48
53715;BME280;39608;55.630;37.864;2023-09-30T07:47:35;99781.72;;;19.41;55.66
53715;BME280;39608;55.630;37.864;2023-09-30T07:52:39;99762.31;;;19.49;55.67
53715;BME280;39608;55.630;37.864;2023-09-30T07:57:43;99767.63;;;19.71;54.40
53715;BME280;39608;55.630;37.864;2023-09-30T08:02:46;99750.25;;;20.59;52.39
53715;BME280;39608;55.630;37.864;2023-09-30T08:07:49;99754.94;;;25.40;42.80
53715;BME280;39608;55.630;37.864;2023-09-30T08:12:54;99758.44;;;27.86;37.37
53715;BME280;39608;55.630;37.864;2023-09-30T08:17:58;99760.34;;;29.01;34.21
53715;BME280;39608;55.630;37.864;2023-09-30T08:23:00;99748.81;;;30.50;31.28
53715;BME280;39608;55.630;37.864;2023-09-30T08:28:04;99748.00;;;31.37;30.20
53715;BME280;39608;55.630;37.864;2023-09-30T08:33:06;99740.19;;;30.85;29.89
53715;BME280;39608;55.630;37.864;2023-09-30T08:38:08;99734.66;;;31.45;29.04
53715;BME280;39608;55.630;37.864;2023-09-30T08:43:12;99740.81;;;31.36;27.90
53715;BME280;39608;55.630;37.864;2023-09-30T08:48:16;99733.03;;;30.84;28.26
53715;BME280;39608;55.630;37.864;2023-09-30T08:53:19;99727.94;;;31.96;27.26
53715;BME280;39608;55.630;37.864;2023-09-30T08:58:24;99722.97;;;31.67;27.25
53715;BME280;39608;55.630;37.864;2023-09-30T09:03:28;99719.53;;;32.62;25.59
53715;BME280;39608;55.630;37.864;2023-09-30T09:08:32;99716.94;;;33.55;24.85
53715;BME280;39608;55.630;37.864;2023-09-30T09:13:47;99707.38;;;34.17;24.31
53715;BME280;39608;55.630;37.864;2023-09-30T09:18:51;99707.00;;;33.51;23.78
53715;BME280;39608;55.630;37.864;2023-09-30T09:23:54;99697.13;;;33.46;23.71
53715;BME280;39608;55.630;37.864;2023-09-30T09:29:00;99702.81;;;33.30;24.40
53715;BME280;39608;55.630;37.864;2023-09-30T09:34:04;99703.28;;;34.44;22.15
53715;BME280;39608;55.630;37.864;2023-09-30T09:39:14;99676.38;;;32.85;23.04
53715;BME280;39608;55.630;37.864;2023-09-30T09:44:23;99691.53;;;33.98;22.03
53715;BME280;39608;55.630;37.864;2023-09-30T09:49:26;99680.81;;;34.18;21.88
53715;BME280;39608;55.630;37.864;2023-09-30T09:54:30;99665.63;;;33.51;22.63
53715;BME280;39608;55.630;37.864;2023-09-30T09:59:36;99685.31;;;34.16;22.24
53715;BME280;39608;55.630;37.864;2023-09-30T10:04:40;99672.19;;;34.48;21.40
53715;BME280;39608;55.630;37.864;2023-09-30T10:09:46;99668.75;;;34.66;21.21
53715;BME280;39608;55.630;37.864;2023-09-30T10:14:52;99670.34;;;33.29;22.13
53715;BME280;39608;55.630;37.864;2023-09-30T10:20:04;99668.75;;;30.97;24.70
53715;BME280;39608;55.630;37.864;2023-09-30T10:25:33;99675.78;;;32.15;23.97
53715;BME280;39608;55.630;37.864;2023-09-30T10:30:37;99661.38;;;31.63;23.99
53715;BME280;39608;55.630;37.864;2023-09-30T10:35:43;99663.28;;;33.63;22.43
53715;BME280;39608;55.630;37.864;2023-09-30T10:40:50;99656.94;;;35.96;19.88
53715;BME280;39608;55.630;37.864;2023-09-30T10:45:54;99667.06;;;36.44;18.70
53715;BME280;39608;55.630;37.864;2023-09-30T10:50:57;99646.50;;;35.75;19.59
53715;BME280;39608;55.630;37.864;2023-09-30T10:56:00;99651.06;;;32.72;22.80
53715;BME280;39608;55.630;37.864;2023-09-30T11:01:03;99628.06;;;31.98;23.51
53715;BME280;39608;55.630;37.864;2023-09-30T11:06:05;99633.88;;;33.12;21.65
53715;BME280;39608;55.630;37.864;2023-09-30T11:11:08;99627.09;;;34.83;20.05
53715;BME280;39608;55.630;37.864;2023-09-30T11:16:12;99618.72;;;33.35;22.23
53715;BME280;39608;55.630;37.864;2023-09-30T11:21:14;99608.88;;;32.30;23.00
53715;BME280;39608;55.630;37.864;2023-09-30T11:26:16;99613.19;;;31.68;23.45
53715;BME280;39608;55.630;37.864;2023-09-30T11:31:19;99604.41;;;34.42;20.90
53715;BME280;39608;55.630;37.864;2023-09-30T11:36:22;99613.97;;;36.76;18.62
53715;BME280;39608;55.630;37.864;2023-09-30T11:41:32;99605.97;;;36.74;18.77
53715;BME280;39608;55.630;37.864;2023-09-30T11:46:50;99581.63;;;33.40;21.60
53715;BME280;39608;55.630;37.864;2023-09-30T11:51:54;99574.94;;;30.68;24.30
53715;BME280;39608;55.630;37.864;2023-09-30T11:56:57;99586.66;;;33.58;21.87
53715;BME280;39608;55.630;37.864;2023-09-30T12:02:00;99586.41;;;34.61;20.39
53715;BME280;39608;55.630;37.864;2023-09-30T12:07:03;99583.63;;;34.49;20.52
53715;BME280;39608;55.630;37.864;2023-09-30T12:12:05;99585.13;;;34.05;20.68
53715;BME280;39608;55.630;37.864;2023-09-30T12:17:11;99571.75;;;33.97;21.33
53715;BME280;39608;55.630;37.864;2023-09-30T12:22:18;99567.50;;;33.66;21.20
53715;BME280;39608;55.630;37.864;2023-09-30T12:27:25;99559.28;;;32.82;22.04
53715;BME280;39608;55.630;37.864;2023-09-30T12:32:28;99559.94;;;31.15;23.42
53715;BME280;39608;55.630;37.864;2023-09-30T12:37:31;99540.53;;;27.95;28.07
53715;BME280;39608;55.630;37.864;2023-09-30T12:42:34;99541.38;;;26.72;29.68
53715;BME280;39608;55.630;37.864;2023-09-30T12:47:38;99546.81;;;28.10;28.55
53715;BME280;39608;55.630;37.864;2023-09-30T12:52:40;99543.66;;;29.62;26.27
53715;BME280;39608;55.630;37.864;2023-09-30T12:57:42;99535.00;;;30.44;25.52
53715;BME280;39608;55.630;37.864;2023-09-30T13:02:46;99541.03;;;31.19;24.46
53715;BME280;39608;55.630;37.864;2023-09-30T13:07:50;99524.81;;;30.74;24.55
53715;BME280;39608;55.630;37.864;2023-09-30T13:12:53;99522.16;;;29.83;25.88
53715;BME280;39608;55.630;37.864;2023-09-30T13:17:57;99514.25;;;27.96;28.72
53715;BME280;39608;55.630;37.864;2023-09-30T13:22:59;99522.59;;;28.72;27.78
53715;BME280;39608;55.630;37.864;2023-09-30T13:28:03;99482.81;;;28.95;27.09
53715;BME280;39608;55.630;37.864;2023-09-30T13:33:06;99482.41;;;27.97;28.17
53715;BME280;39608;55.630;37.864;2023-09-30T13:38:08;99494.56;;;26.53;30.18
53715;BME280;39608;55.630;37.864;2023-09-30T13:43:10;99487.94;;;25.17;32.70
53715;BME280;39608;55.630;37.864;2023-09-30T13:48:14;99487.31;;;24.42;33.96
53715;BME280;39608;55.630;37.864;2023-09-30T13:53:16;99490.59;;;23.89;35.23
53715;BME280;39608;55.630;37.864;2023-09-30T13:58:18;99487.53;;;23.53;35.92
53715;BME280;39608;55.630;37.864;2023-09-30T14:03:26;99481.84;;;23.31;36.12
53715;BME280;39608;55.630;37.864;2023-09-30T14:08:30;99463.59;;;22.85;37.65
53715;BME280;39608;55.630;37.864;2023-09-30T14:13:32;99473.69;;;22.67;38.09
53715;BME280;39608;55.630;37.864;2023-09-30T14:18:35;99480.69;;;22.57;38.12
53715;BME280;39608;55.630;37.864;2023-09-30T14:23:39;99474.50;;;22.37;38.33
53715;BME280;39608;55.630;37.864;2023-09-30T14:28:41;99468.72;;;22.19;38.96
53715;BME280;39608;55.630;37.864;2023-09-30T14:33:45;99479.44;;;21.94;39.99
53715;BME280;39608;55.630;37.864;2023-09-30T14:38:47;99475.75;;;21.86;39.87
53715;BME280;39608;55.630;37.864;2023-09-30T14:43:50;99464.28;;;21.57;40.35
53715;BME280;39608;55.630;37.864;2023-09-30T14:48:54;99468.69;;;21.39;41.39
53715;BME280;39608;55.630;37.864;2023-09-30T14:53:56;99459.22;;;21.13;41.43
53715;BME280;39608;55.630;37.864;2023-09-30T14:58:58;99461.28;;;20.96;41.93
53715;BME280;39608;55.630;37.864;2023-09-30T15:04:02;99474.50;;;20.87;42.06
53715;BME280;39608;55.630;37.864;2023-09-30T15:09:05;99474.84;;;20.66;42.62
53715;BME280;39608;55.630;37.864;2023-09-30T15:14:10;99465.53;;;20.51;42.98
53715;BME280;39608;55.630;37.864;2023-09-30T15:19:13;99471.38;;;20.30;43.33
53715;BME280;39608;55.630;37.864;2023-09-30T15:24:15;99458.03;;;20.12;43.62
53715;BME280;39608;55.630;37.864;2023-09-30T15:29:17;99452.59;;;19.96;43.97
53715;BME280;39608;55.630;37.864;2023-09-30T15:34:21;99458.13;;;19.80;44.58
53715;BME280;39608;55.630;37.864;2023-09-30T15:39:23;99451.44;;;19.65;45.00
53715;BME280;39608;55.630;37.864;2023-09-30T15:44:25;99452.47;;;19.57;45.37
53715;BME280;39608;55.630;37.864;2023-09-30T15:49:28;99459.31;;;19.47;45.82
53715;BME280;39608;55.630;37.864;2023-09-30T15:54:30;99457.00;;;19.34;46.27
53715;BME280;39608;55.630;37.864;2023-09-30T15:59:33;99452.28;;;19.34;46.35
53715;BME280;39608;55.630;37.864;2023-09-30T16:04:37;99449.81;;;19.29;46.55
53715;BME280;39608;55.630;37.864;2023-09-30T16:09:40;99451.94;;;19.20;47.06
53715;BME280;39608;55.630;37.864;2023-09-30T16:14:42;99444.56;;;19.08;47.14
53715;BME280;39608;55.630;37.864;2023-09-30T16:19:46;99448.38;;;19.03;47.52
53715;BME280;39608;55.630;37.864;2023-09-30T16:24:48;99427.41;;;18.83;47.95
53715;BME280;39608;55.630;37.864;2023-09-30T16:29:50;99440.78;;;18.84;48.25
53715;BME280;39608;55.630;37.864;2023-09-30T16:34:54;99444.97;;;18.78;48.52
53715;BME280;39608;55.630;37.864;2023-09-30T16:39:56;99441.56;;;18.69;48.77
53715;BME280;39608;55.630;37.864;2023-09-30T16:44:59;99437.03;;;18.60;48.96
53715;BME280;39608;55.630;37.864;2023-09-30T16:50:07;99432.94;;;18.54;49.13
53715;BME280;39608;55.630;37.864;2023-09-30T16:55:09;99419.84;;;18.35;49.56
53715;BME280;39608;55.630;37.864;2023-09-30T17:00:13;99425.69;;;18.34;49.78
53715;BME280;39608;55.630;37.864;2023-09-30T17:05:18;99419.31;;;18.29;50.01
53715;BME280;39608;55.630;37.864;2023-09-30T17:10:27;99386.13;;;18.06;50.34
53715;BME280;39608;55.630;37.864;2023-09-30T17:15:29;99402.09;;;18.17;50.64
53715;BME280;39608;55.630;37.864;2023-09-30T17:20:32;99383.41;;;17.94;51.10
53715;BME280;39608;55.630;37.864;2023-09-30T17:25:37;99395.03;;;18.03;50.92
53715;BME280;39608;55.630;37.864;2023-09-30T17:30:44;99397.69;;;18.00;51.16
53715;BME280;39608;55.630;37.864;2023-09-30T17:35:48;99385.09;;;17.86;51.38
53715;BME280;39608;55.630;37.864;2023-09-30T17:40:50;99378.50;;;17.75;51.62
53715;BME280;39608;55.630;37.864;2023-09-30T17:45:55;99374.97;;;17.74;51.89
53715;BME280;39608;55.630;37.864;2023-09-30T17:50:58;99380.91;;;17.76;51.95
53715;BME280;39608;55.630;37.864;2023-09-30T17:56:02;99371.22;;;17.67;52.23
53715;BME280;39608;55.630;37.864;2023-09-30T18:01:05;99371.22;;;17.67;52.49
53715;BME280;39608;55.630;37.864;2023-09-30T18:06:09;99368.38;;;17.63;52.67
53715;BME280;39608;55.630;37.864;2023-09-30T18:11:12;99350.09;;;17.55;52.66
53715;BME280;39608;55.630;37.864;2023-09-30T18:16:14;99331.63;;;17.39;52.87
53715;BME280;39608;55.630;37.864;2023-09-30T18:21:18;99350.81;;;17.52;53.13
53715;BME280;39608;55.630;37.864;2023-09-30T18:26:20;99348.41;;;17.50;53.18
53715;BME280;39608;55.630;37.864;2023-09-30T18:31:22;99340.19;;;17.38;53.38
53715;BME280;39608;55.630;37.864;2023-09-30T18:36:26;99342.94;;;17.38;53.60
53715;BME280;39608;55.630;37.864;2023-09-30T18:41:28;99339.28;;;17.34;53.63
53715;BME280;39608;55.630;37.864;2023-09-30T18:46:30;99343.38;;;17.27;53.92
53715;BME280;39608;55.630;37.864;2023-09-30T18:51:34;99337.91;;;17.27;53.93
53715;BME280;39608;55.630;37.864;2023-09-30T18:56:36;99335.84;;;17.24;54.30
53715;BME280;39608;55.630;37.864;2023-09-30T19:01:38;99327.19;;;17.22;54.55
53715;BME280;39608;55.630;37.864;2023-09-30T19:06:41;99328.09;;;17.26;54.61
53715;BME280;39608;55.630;37.864;2023-09-30T19:11:43;99321.03;;;17.25;54.58
53715;BME280;39608;55.630;37.864;2023-09-30T19:16:46;99310.28;;;17.33;54.47
53715;BME280;39608;55.630;37.864;2023-09-30T19:21:49;99310.03;;;17.50;54.40
53715;BME280;39608;55.630;37.864;2023-09-30T19:26:52;99309.91;;;17.47;54.28
53715;BME280;39608;55.630;37.864;2023-09-30T19:31:54;99306.63;;;17.28;54.81
53715;BME280;39608;55.630;37.864;2023-09-30T19:36:57;99312.03;;;17.13;55.21
53715;BME280;39608;55.630;37.864;2023-09-30T19:41:59;99307.81;;;17.03;55.50
53715;BME280;39608;55.630;37.864;2023-09-30T19:47:02;99300.16;;;16.96;55.90
53715;BME280;39608;55.630;37.864;2023-09-30T19:52:12;99303.81;;;17.13;55.55
53715;BME280;39608;55.630;37.864;2023-09-30T19:57:14;99300.47;;;17.19;55.56
53715;BME280;39608;55.630;37.864;2023-09-30T20:02:16;99296.59;;;17.20;55.42
53715;BME280;39608;55.630;37.864;2023-09-30T20:07:21;99288.00;;;17.22;55.56
53715;BME280;39608;55.630;37.864;2023-09-30T20:12:23;99279.69;;;17.18;55.50
53715;BME280;39608;55.630;37.864;2023-09-30T20:17:26;99288.28;;;17.17;55.68
53715;BME280;39608;55.630;37.864;2023-09-30T20:22:29;99276.25;;;17.21;55.84
53715;BME280;39608;55.630;37.864;2023-09-30T20:27:31;99281.53;;;17.14;55.92
53715;BME280;39608;55.630;37.864;2023-09-30T20:32:34;99275.28;;;17.01;56.18
53715;BME280;39608;55.630;37.864;2023-09-30T20:37:38;99268.97;;;17.01;56.47
53715;BME280;39608;55.630;37.864;2023-09-30T20:42:40;99267.38;;;17.00;56.31
53715;BME280;39608;55.630;37.864;2023-09-30T20:47:44;99253.94;;;16.95;56.35
53715;BME280;39608;55.630;37.864;2023-09-30T20:52:49;99266.47;;;16.96;56.79
53715;BME280;39608;55.630;37.864;2023-09-30T20:57:52;99255.38;;;16.80;56.77
53715;BME280;39608;55.630;37.864;2023-09-30T21:02:54;99247.72;;;16.73;57.12
53715;BME280;39608;55.630;37.864;2023-09-30T21:07:58;99245.69;;;16.82;57.05
53715;BME280;39608;55.630;37.864;2023-09-30T21:13:00;99250.13;;;16.87;56.99
53715;BME280;39608;55.630;37.864;2023-09-30T21:18:02;99230.16;;;16.74;57.16
53715;BME280;39608;55.630;37.864;2023-09-30T21:23:06;99227.06;;;16.63;57.53
53715;BME280;39608;55.630;37.864;2023-09-30T21:28:08;99231.06;;;16.66;57.35
53715;BME280;39608;55.630;37.864;2023-09-30T21:33:10;99225.94;;;16.64;57.60
53715;BME280;39608;55.630;37.864;2023-09-30T21:38:14;99223.91;;;16.73;57.26
53715;BME280;39608;55.630;37.864;2023-09-30T21:43:16;99217.25;;;16.74;57.19
53715;BME280;39608;55.630;37.864;2023-09-30T21:48:20;99217.81;;;16.80;57.11
53715;BME280;39608;55.630;37.864;2023-09-30T21:53:24;99219.56;;;16.85;57.20
53715;BME280;39608;55.630;37.864;2023-09-30T21:58:26;99211.56;;;16.80;57.02
53715;BME280;39608;55.630;37.864;2023-09-30T22:03:29;99211.13;;;16.77;57.26
53715;BME280;39608;55.630;37.864;2023-09-30T22:08:35;99197.44;;;16.77;57.28
53715;BME280;39608;55.630;37.864;2023-09-30T22:13:39;99204.25;;;16.71;57.42
53715;BME280;39608;55.630;37.864;2023-09-30T22:18:41;99198.78;;;16.71;57.52
53715;BME280;39608;55.630;37.864;2023-09-30T22:23:45;99193.88;;;16.77;57.42
53715;BME280;39608;55.630;37.864;2023-09-30T22:28:47;99193.44;;;16.75;57.14
53715;BME280;39608;55.630;37.864;2023-09-30T22:33:49;99182.13;;;16.64;57.63
53715;BME280;39608;55.630;37.864;2023-09-30T22:38:53;99176.09;;;16.58;57.79
53715;BME280;39608;55.630;37.864;2023-09-30T22:43:55;99172.44;;;16.54;57.74
53715;BME280;39608;55.630;37.864;2023-09-30T22:48:57;99182.81;;;16.36;58.30
53715;BME280;39608;55.630;37.864;2023-09-30T22:54:01;99167.88;;;16.34;58.28
53715;BME280;39608;55.630;37.864;2023-09-30T22:59:04;99163.00;;;16.27;58.44
53715;BME280;39608;55.630;37.864;2023-09-30T23:04:08;99162.41;;;16.21;58.64
53715;BME280;39608;55.630;37.864;2023-09-30T23:09:12;99154.91;;;16.31;58.47
53715;BME280;39608;55.630;37.864;2023-09-30T23:14:14;99154.91;;;16.43;58.24
53715;BME280;39608;55.630;37.864;2023-09-30T23:19:16;99155.13;;;16.38;58.31
53715;BME280;39608;55.630;37.864;2023-09-30T23:24:21;99149.63;;;16.38;58.29
53715;BME280;39608;55.630;37.864;2023-09-30T23:29:23;99141.69;;;16.33;58.49
53715;BME280;39608;55.630;37.864;2023-09-30T23:34:25;99146.25;;;16.29;58.63
53715;BME280;39608;55.630;37.864;2023-09-30T23:39:29;99141.19;;;16.18;58.77
53715;BME280;39608;55.630;37.864;2023-09-30T23:44:33;99140.28;;;16.14;59.09
53715;BME280;39608;55.630;37.864;2023-09-30T23:49:36;99144.50;;;16.12;59.11
53715;BME280;39608;55.630;37.864;2023-09-30T23:54:42;99142.44;;;16.08;59.07
53715;BME280;39608;55.630;37.864;2023-09-30T23:59:46;99124.78;;;16.06;59.23
